In Rescue
 
Open Full Screen Window  High Contrast Mode
Wind Gusting 00 knots
06
November 14, 2019 12:52 PM CST
Weather Information
Wind Direction
  190 °
Wind Speed
  06 kt (7 mph)
Wind Gust
  00 kt (0 mph)
Altimeter
29.96 in
Visibility
10 SM
Temperature
-05° C
23° F
Dewpoint
-12° C
10° F
Humidity
58%
1hr Rain Fall
00.00 in.
24hr Rain Fall
00.00 in.
Sky Condition
Overcast @ 5,000 ft
Scattered @ 3,300 ft
VFR

METAR KCDD 141852Z AUTO 19006KT 10SM SCT033 OVC050 M05/M12 A2996 RMK AO2

FAA Disclaimer: The data displayed is for advisory purposes only and is not to be used for flight planning or operations.